Terminal Aerodrome Forecast
Issued by NWS Tuscon, AZ

Home | Current Version | Previous Version | Text Only | Print | Product List | Glossary On
Versions: 1 2 3 4 5 6 7 8 9 10 11 12 13 14 15
000
FTUS45 KTWC 290532
TAFTUS
TAF
KTUS 290532Z 2906/3006 16007KT P6SM SCT250
     FM290800 14007KT P6SM FEW250
     FM291900 22005KT P6SM FEW090
     FM292300 29008KT P6SM SCT080 BKN120
     FM300500 14007KT P6SM SCT120 BKN250=

USA.gov is the U.S. government's official web portal to all federal, state and local government web resources and services.